Time;durP1;ratioP1;P1;durP2;ratioP2;P2;SDS_P1;SDS_P2;PMS_P1;PMS_P2;Temp;Humidity;BMP_temperature;BMP_pressure;BME280_temperature;BME280_humidity;BME280_pressure;Samples;Min_cycle;Max_cycle;Signal;HPM_P1;HPM_P2
2022/03/18 00:09:19;;;;;;;1.00;0.30;;;;;;;;;;20613261;28;20224;-65
2022/03/18 00:19:21;;;;;;;0.43;0.27;;;;;;;;;;20628392;28;20269;-65
2022/03/18 00:29:23;;;;;;;2.80;0.70;;;8.50;99.90;;;;;;20644275;28;20574;-65
2022/03/18 00:39:25;;;;;;;0.30;0.30;;;;;;;;;;20627567;28;20258;-65
2022/03/18 00:59:47;;;;;;;0.80;0.40;;;;;;;;;;20652954;28;20216;-65
2022/03/18 01:09:49;;;;;;;0.63;0.40;;;;;;;;;;20658570;23;20305;-66
2022/03/18 01:19:51;;;;;;;4.10;0.90;;;;;;;;;;20673672;28;20216;-68
2022/03/18 01:29:53;;;;;;;0.77;0.57;;;;;;;;;;20640490;28;20228;-68
2022/03/18 01:39:55;;;;;;;0.70;0.50;;;;;;;;;;20621854;28;20744;-68
2022/03/18 01:49:58;;;;;;;3.40;0.60;;;;;;;;;;20628716;28;20247;-68
2022/03/18 02:00:00;;;;;;;3.40;0.40;;;8.40;99.90;;;;;;20654379;28;20216;-67
2022/03/18 02:10:02;;;;;;;0.80;0.50;;;;;;;;;;20653077;28;20216;-67
2022/03/18 02:20:04;;;;;;;1.93;0.87;;;8.20;99.90;;;;;;20653195;28;20207;-68
2022/03/18 02:30:07;;;;;;;1.10;0.53;;;8.40;99.90;;;;;;20636365;28;20223;-67
2022/03/18 02:40:09;;;;;;;0.93;0.40;;;8.30;99.90;;;;;;20651712;28;20235;-67
2022/03/18 02:50:11;;;;;;;1.27;0.50;;;8.40;99.90;;;;;;20619040;28;20219;-68
2022/03/18 03:00:13;;;;;;;0.70;0.30;;;8.30;99.90;;;;;;20650020;28;20207;-68
2022/03/18 03:10:16;;;;;;;1.37;0.53;;;;;;;;;;20665719;28;20682;-68
2022/03/18 03:20:18;;;;;;;1.60;0.70;;;;;;;;;;20616318;28;20211;-68
2022/03/18 03:30:20;;;;;;;2.10;0.90;;;8.50;99.90;;;;;;20615882;28;20220;-68
2022/03/18 03:40:24;;;;;;;1.60;0.53;;;;;;;;;;20647137;28;20224;-68
2022/03/18 03:50:27;;;;;;;1.33;0.60;;;;;;;;;;20646248;28;20219;-67
2022/03/18 04:00:29;;;;;;;7.00;1.00;;;;;;;;;;20613714;28;20738;-67
2022/03/18 04:10:30;;;;;;;1.17;0.40;;;;;;;;;;20629176;28;20215;-68
2022/03/18 04:20:33;;;;;;;2.00;0.70;;;5.80;99.90;;;;;;20661078;28;20203;-68
2022/03/18 04:30:35;;;;;;;3.00;0.80;;;8.10;99.90;;;;;;20627851;28;20282;-68
2022/03/18 04:40:36;;;;;;;2.30;0.70;;;8.20;99.90;;;;;;20643131;28;20262;-68
2022/03/18 04:50:38;;;;;;;2.80;0.70;;;7.90;99.90;;;;;;20627375;28;20297;-67
2022/03/18 05:00:41;;;;;;;0.70;0.50;;;;;;;;;;20621131;28;20223;-67
2022/03/18 05:10:42;;;;;;;1.30;0.80;;;;;;;;;;20658102;28;20279;-67
2022/03/18 05:20:44;;;;;;;2.90;1.03;;;;;;;;;;20626774;28;20237;-68
2022/03/18 05:30:46;;;;;;;0.77;0.60;;;;;;;;;;20642076;28;20220;-67
2022/03/18 05:40:48;;;;;;;5.07;1.37;;;;;;;;;;20613127;28;20212;-68
2022/03/18 05:50:51;;;;;;;1.03;0.57;;;;;;;;;;20670304;28;20697;-68
2022/03/18 06:00:53;;;;;;;1.63;0.63;;;;;;;;;;20592176;28;20220;-67
2022/03/18 06:21:15;;;;;;;3.97;0.97;;;;;;;;;;20576788;28;20248;-67
2022/03/18 06:31:17;;;;;;;2.10;0.97;;;;;;;;;;20633040;28;20793;-67
2022/03/18 06:41:19;;;;;;;1.30;0.77;;;;;;;;;;20652550;28;20223;-68
2022/03/18 06:51:22;;;;;;;4.27;1.13;;;;;;;;;;20651739;28;20215;-68
2022/03/18 07:01:25;;;;;;;1.27;0.67;;;;;;;;;;20649437;28;20757;-68
2022/03/18 07:11:27;;;;;;;2.20;1.03;;;7.90;99.90;;;;;;20624332;28;20239;-66
2022/03/18 07:21:29;;;;;;;1.40;0.80;;;;;;;;;;20615401;28;20227;-66
2022/03/18 07:31:31;;;;;;;2.97;0.90;;;;;;;;;;20642392;28;20850;-67
2022/03/18 07:41:34;;;;;;;1.83;1.13;;;;;;;;;;20613336;28;20243;-67
2022/03/18 07:51:36;;;;;;;1.03;0.70;;;;;;;;;;20574792;28;20286;-67
2022/03/18 08:01:39;;;;;;;3.40;1.53;;;8.20;99.90;;;;;;20561845;28;20275;-68
2022/03/18 08:11:41;;;;;;;6.67;0.90;;;;;;;;;;20588282;28;20216;-67
2022/03/18 08:21:43;;;;;;;1.87;0.90;;;9.20;99.90;;;;;;20658840;28;20212;-67
2022/03/18 08:31:45;;;;;;;3.37;1.13;;;;;;;;;;20610300;28;20219;-67
2022/03/18 08:41:47;;;;;;;1.33;1.00;;;;;;;;;;20590231;28;20267;-67
2022/03/18 08:51:49;;;;;;;1.80;1.10;;;;;;;;;;20615340;28;20236;-67
2022/03/18 09:01:51;;;;;;;2.20;0.97;;;;;;;;;;20605867;28;20659;-67
2022/03/18 09:11:54;;;;;;;3.80;1.30;;;;;;;;;;20622134;28;20302;-67
2022/03/18 09:21:57;;;;;;;4.00;1.20;;;;;;;;;;20641085;28;20231;-64
2022/03/18 09:32:01;;;;;;;3.00;1.77;;;;;;;;;;20617102;28;20243;-67
2022/03/18 09:42:03;;;;;;;2.27;1.23;;;;;;;;;;20654534;28;20251;-67
2022/03/18 09:52:10;;;;;;;3.67;1.57;;;;;;;;;;20671466;22;20236;-82
2022/03/18 10:02:39;;;;;;;1.80;1.10;;;9.90;99.90;;;;;;20697556;28;20599;-82
2022/03/18 10:12:47;;;;;;;3.10;1.30;;;;;;;;;;20653376;28;20227;-81
2022/03/18 10:22:49;;;;;;;4.90;1.40;;;;;;;;;;20683443;28;20232;-81
2022/03/18 10:32:59;;;;;;;4.60;1.70;;;;;;;;;;20665276;28;20235;-84
2022/03/18 10:43:02;;;;;;;4.03;1.37;;;;;;;;;;20666714;28;20278;-84
2022/03/18 10:53:05;;;;;;;2.33;1.53;;;;;;;;;;20635418;28;20224;-82
2022/03/18 11:03:08;;;;;;;2.60;1.67;;;;;;;;;;20670731;28;20220;-80
2022/03/18 11:13:13;;;;;;;1.70;1.20;;;;;;;;;;20631843;28;20694;-84
2022/03/18 11:23:16;;;;;;;3.53;1.60;;;;;;;;;;20567751;28;20220;-85
2022/03/18 11:33:19;;;;;;;2.10;1.30;;;;;;;;;;20639025;28;20231;-84
2022/03/18 11:43:33;;;;;;;2.37;1.70;;;;;;;;;;20663966;28;20689;-85
2022/03/18 11:53:47;;;;;;;7.53;2.30;;;;;;;;;;20661369;28;20224;-82
2022/03/18 12:03:55;;;;;;;4.03;1.70;;;;;;;;;;20602903;28;20294;-81
2022/03/18 12:13:58;;;;;;;3.20;1.53;;;;;;;;;;20620016;28;20299;-82
2022/03/18 12:24:03;;;;;;;7.03;1.60;;;;;;;;;;20656751;28;20242;-85
2022/03/18 12:34:08;;;;;;;3.03;1.20;;;;;;;;;;20651278;28;20236;-85
2022/03/18 12:44:11;;;;;;;3.67;1.63;;;;;;;;;;20654984;28;20274;-85
2022/03/18 12:54:13;;;;;;;2.23;1.50;;;;;;;;;;20689494;28;20211;-85
2022/03/18 13:04:42;;;;;;;4.50;1.83;;;;;;;;;;20672770;28;20561;-84
2022/03/18 13:14:53;;;;;;;3.70;1.60;;;;;;;;;;20664150;28;20231;-86
2022/03/18 13:35:23;;;;;;;4.60;1.43;;;;;;;;;;21284530;27;20566;-67
2022/03/18 13:45:26;;;;;;;3.83;1.30;;;13.80;99.90;;;;;;21202738;27;20734;-66
2022/03/18 13:55:31;;;;;;;2.80;1.07;;;13.80;99.90;;;;;;21159750;28;20211;-67
2022/03/18 14:05:35;;;;;;;1.20;0.77;;;;;;;;;;21166702;28;20746;-67
2022/03/18 14:15:40;;;;;;;2.13;0.90;;;;;;;;;;21203797;28;20223;-67
2022/03/18 14:25:43;;;;;;;0.97;0.70;;;13.70;99.90;;;;;;21178779;27;20272;-67
2022/03/18 14:35:45;;;;;;;2.83;1.00;;;13.50;99.90;;;;;;21157832;28;20215;-67
2022/03/18 14:45:48;;;;;;;1.23;0.70;;;;;;;;;;21122617;28;20196;-67
2022/03/18 15:06:12;;;;;;;1.67;0.57;;;;;;;;;;21132851;28;20284;-67
2022/03/18 15:16:14;;;;;;;1.87;0.60;;;;;;;;;;21127609;27;20212;-67
2022/03/18 15:26:16;;;;;;;1.87;0.60;;;;;;;;;;21156639;27;20291;-67
2022/03/18 15:36:18;;;;;;;3.10;2.17;;;;;;;;;;21082568;27;20281;-67
2022/03/18 15:46:21;;;;;;;3.87;2.80;;;13.00;99.90;;;;;;21100182;28;20220;-67
2022/03/18 15:56:25;;;;;;;2.93;2.00;;;;;;;;;;21106615;28;20212;-67
2022/03/18 16:06:28;;;;;;;3.00;2.00;;;;;;;;;;21123218;28;20675;-66
2022/03/18 16:16:30;;;;;;;4.57;2.47;;;;;;;;;;21104486;28;20694;-67
2022/03/18 16:26:33;;;;;;;3.30;2.30;;;;;;;;;;21100064;28;20288;-66
2022/03/18 16:36:35;;;;;;;2.77;1.07;;;;;;;;;;21103420;28;20208;-67
2022/03/18 16:56:58;;;;;;;3.27;1.93;;;;;;;;;;21126161;28;20216;-65
2022/03/18 17:06:59;;;;;;;3.17;1.80;;;;;;;;;;21101027;28;20216;-65
2022/03/18 17:17:02;;;;;;;2.90;1.60;;;;;;;;;;21111361;28;20236;-66
2022/03/18 17:27:05;;;;;;;3.20;1.83;;;;;;;;;;21028781;28;20240;-65
2022/03/18 17:37:06;;;;;;;3.87;2.40;;;;;;;;;;21073832;28;20203;-66
2022/03/18 17:47:09;;;;;;;6.57;3.60;;;12.40;99.90;;;;;;21095969;28;20204;-66
2022/03/18 17:57:19;;;;;;;3.93;2.50;;;;;;;;;;21082354;28;20580;-65
2022/03/18 18:07:22;;;;;;;3.90;2.67;;;;;;;;;;21090528;28;20257;-66
2022/03/18 18:17:24;;;;;;;3.80;2.10;;;;;;;;;;21096047;28;20220;-65
2022/03/18 18:27:27;;;;;;;4.27;2.20;;;;;;;;;;21069735;28;20251;-66
2022/03/18 18:37:29;;;;;;;3.50;2.03;;;;;;;;;;20917156;22;20230;-65
2022/03/18 18:47:31;;;;;;;6.23;2.13;;;;;;;;;;20723619;28;20277;-64
2022/03/18 18:57:35;;;;;;;5.20;1.80;;;;;;;;;;20749806;28;20304;-65
2022/03/18 19:07:39;;;;;;;2.63;1.40;;;;;;;;;;20769432;28;20226;-65
2022/03/18 19:17:41;;;;;;;4.50;2.07;;;;;;;;;;20763116;28;20223;-65
2022/03/18 19:27:45;;;;;;;4.10;1.73;;;;;;;;;;20797199;28;20269;-66
2022/03/18 19:37:48;;;;;;;3.27;1.83;;;11.40;99.90;;;;;;20779653;28;20625;-66
2022/03/18 19:47:52;;;;;;;3.30;1.63;;;;;;;;;;20795648;28;20206;-66
2022/03/18 20:08:15;;;;;;;4.90;2.80;;;;;;;;;;20810934;28;20227;-66
2022/03/18 20:18:18;;;;;;;3.97;2.10;;;;;;;;;;20776250;28;20633;-66
2022/03/18 20:28:20;;;;;;;4.07;2.63;;;;;;;;;;20791593;28;20218;-66
2022/03/18 20:38:22;;;;;;;4.73;2.67;;;;;;;;;;20774662;28;20284;-66
2022/03/18 20:48:26;;;;;;;4.93;3.10;;;;;;;;;;20777070;28;20266;-66
2022/03/18 20:58:28;;;;;;;4.40;2.70;;;;;;;;;;20761139;28;20223;-66
2022/03/18 21:08:30;;;;;;;5.87;3.60;;;;;;;;;;20678918;28;20207;-66
2022/03/18 21:18:32;;;;;;;5.07;3.47;;;;;;;;;;20683706;28;20281;-66
2022/03/18 21:38:55;;;;;;;6.17;4.37;;;;;;;;;;20699344;28;20250;-66
2022/03/18 21:48:57;;;;;;;9.37;4.13;;;;;;;;;;20701814;28;20266;-65
2022/03/18 21:58:59;;;;;;;5.77;3.90;;;;;;;;;;20699478;28;20679;-65
2022/03/18 22:09:03;;;;;;;7.17;4.63;;;;;;;;;;20713480;28;20211;-66
2022/03/18 22:19:04;;;;;;;5.50;3.50;;;;;;;;;;20698573;28;20262;-66
2022/03/18 22:29:07;;;;;;;5.90;3.80;;;;;;;;;;20710895;28;20242;-66
2022/03/18 22:39:09;;;;;;;6.03;3.53;;;;;;;;;;20696500;28;20219;-66
2022/03/18 22:49:11;;;;;;;6.30;3.97;;;;;;;;;;20712585;28;20586;-65
2022/03/18 22:59:13;;;;;;;6.43;4.03;;;;;;;;;;20732936;28;20281;-66
2022/03/18 23:09:15;;;;;;;6.50;3.53;;;;;;;;;;20717315;28;20226;-66
2022/03/18 23:19:17;;;;;;;7.17;4.03;;;;;;;;;;20700676;28;20264;-66
2022/03/18 23:29:19;;;;;;;7.13;3.93;;;;;;;;;;20716836;28;20275;-66
2022/03/18 23:39:23;;;;;;;4.87;3.17;;;;;;;;;;20700418;28;20250;-66
2022/03/18 23:49:24;;;;;;;7.33;3.90;;;;;;;;;;20699479;28;20262;-66
2022/03/18 23:59:27;;;;;;;5.50;3.73;;;;;;;;;;20714885;28;20587;-65
